Wetterdaten: Woche 13.04.15 - 19.04.15 (KW16)
Datum Zeit Temp. A. Feuchte A. Luftdruck Regen Wind Richtung Sonnenschein ET UV Solar Taupunkt Windchill Windben Empfang
13.04.2015 00:00 8,5 C 76 % 1027,3 hPa 0,0 l/m 0,0 km/h (0 Bft) N 0,00 h 0,000 mm 0,0 UV-I 0 W/m 4,6 C 8,5 C 0,0 km/h (0 Bft) 0,00 %
13.04.2015 01:00 7,9 C 78 % 1027,1 hPa 0,0 l/m 0,0 km/h (0 Bft) N 0,00 h 0,000 mm 0,0 UV-I 0 W/m 4,4 C 7,9 C 0,0 km/h (0 Bft) 0,00 %
13.04.2015 02:00 7,7 C 78 % 1026,8 hPa 0,0 l/m 0,0 km/h (0 Bft) N 0,00 h 0,000 mm 0,0 UV-I 0 W/m 4,0 C 7,7 C 0,0 km/h (0 Bft) 0,00 %
13.04.2015 03:00 7,3 C 78 % 1026,6 hPa 0,0 l/m 0,0 km/h (0 Bft) N 0,00 h 0,000 mm 0,0 UV-I 0 W/m 3,7 C 7,3 C 0,0 km/h (0 Bft) 0,00 %
13.04.2015 04:00 6,7 C 79 % 1026,4 hPa 0,0 l/m 0,0 km/h (0 Bft) N 0,00 h 0,000 mm 0,0 UV-I 0 W/m 3,3 C 6,7 C 0,0 km/h (0 Bft) 0,00 %
13.04.2015 05:00 6,0 C 81 % 1026,5 hPa 0,0 l/m 0,0 km/h (0 Bft) N 0,00 h 0,000 mm 0,0 UV-I 0 W/m 2,9 C 6,0 C 0,0 km/h (0 Bft) 0,00 %
13.04.2015 06:00 6,2 C 81 % 1026,5 hPa 0,0 l/m 0,0 km/h (0 Bft) N 0,50 h 0,000 mm 0,0 UV-I 34 W/m 3,1 C 6,2 C 0,0 km/h (0 Bft) 0,00 %
13.04.2015 07:00 9,1 C 70 % 1026,8 hPa 0,0 l/m 0,2 km/h (0 Bft) N 1,00 h 0,000 mm 1,0 UV-I 120 W/m 3,9 C 9,1 C 1,0 km/h (0 Bft) 0,00 %
13.04.2015 08:00 12,0 C 62 % 1026,8 hPa 0,0 l/m 1,1 km/h (1 Bft) W-SW 0,25 h 0,000 mm 1,7 UV-I 183 W/m 5,0 C 12,0 C 3,0 km/h (1 Bft) 0,00 %
13.04.2015 09:00 15,0 C 54 % 1026,7 hPa 0,0 l/m 5,5 km/h (1 Bft) SW 0,50 h 0,000 mm 2,0 UV-I 264 W/m 5,7 C 14,1 C 8,9 km/h (2 Bft) 0,00 %
13.04.2015 10:00 14,6 C 53 % 1027,7 hPa 0,0 l/m 8,8 km/h (2 Bft) W-SW 0,00 h 0,000 mm 2,3 UV-I 219 W/m 5,2 C 12,8 C 12,9 km/h (3 Bft) 0,00 %
13.04.2015 11:00 15,6 C 48 % 1027,8 hPa 0,0 l/m 4,5 km/h (1 Bft) W-SW 0,75 h 0,000 mm 3,7 UV-I 480 W/m 4,7 C 15,6 C 6,9 km/h (2 Bft) 0,00 %
13.04.2015 12:00 16,3 C 48 % 1027,1 hPa 0,0 l/m 6,4 km/h (2 Bft) SW 0,25 h 0,000 mm 3,3 UV-I 375 W/m 5,1 C 15,5 C 9,9 km/h (2 Bft) 0,00 %
13.04.2015 13:00 17,3 C 40 % 1026,3 hPa 0,0 l/m 9,2 km/h (2 Bft) W-NW 0,25 h 0,000 mm 3,7 UV-I 394 W/m 3,3 C 16,0 C 12,9 km/h (3 Bft) 0,00 %
13.04.2015 14:00 17,6 C 39 % 1025,7 hPa 0,0 l/m 12,2 km/h (2 Bft) W-SW 0,50 h 0,000 mm 2,3 UV-I 439 W/m 3,3 C 15,3 C 15,9 km/h (3 Bft) 0,00 %
13.04.2015 15:00 17,9 C 39 % 1025,0 hPa 0,0 l/m 6,3 km/h (2 Bft) S-SW 0,50 h 0,000 mm 2,0 UV-I 450 W/m 3,5 C 17,0 C 10,9 km/h (2 Bft) 0,00 %
13.04.2015 16:00 17,3 C 42 % 1024,3 hPa 0,0 l/m 6,2 km/h (2 Bft) W-SW 0,00 h 0,000 mm 1,3 UV-I 185 W/m 3,9 C 16,6 C 8,9 km/h (2 Bft) 0,00 %
13.04.2015 17:00 14,5 C 61 % 1024,9 hPa 0,0 l/m 3,0 km/h (1 Bft) W-SW 0,25 h 0,000 mm 1,3 UV-I 229 W/m 7,0 C 14,1 C 5,0 km/h (1 Bft) 0,00 %
13.04.2015 18:00 14,9 C 56 % 1024,9 hPa 0,0 l/m 0,1 km/h (0 Bft) W-SW 1,00 h 0,000 mm 1,0 UV-I 169 W/m 6,1 C 14,9 C 1,0 km/h (0 Bft) 0,00 %
13.04.2015 19:00 13,6 C 55 % 1025,0 hPa 0,0 l/m 1,3 km/h (1 Bft) W-SW 0,50 h 0,000 mm 0,0 UV-I 36 W/m 4,8 C 13,6 C 2,0 km/h (1 Bft) 0,00 %
13.04.2015 20:00 12,4 C 55 % 1026,0 hPa 0,0 l/m 1,4 km/h (1 Bft) W-SW 0,00 h 0,000 mm 0,0 UV-I 0 W/m 3,7 C 12,4 C 2,0 km/h (1 Bft) 0,00 %
13.04.2015 21:00 12,1 C 56 % 1026,9 hPa 0,0 l/m 4,8 km/h (1 Bft) W-SW 0,00 h 0,000 mm 0,0 UV-I 0 W/m 3,5 C 11,2 C 7,9 km/h (2 Bft) 0,00 %
13.04.2015 22:00 11,1 C 61 % 1027,8 hPa 0,0 l/m 0,0 km/h (0 Bft) N 0,00 h 0,000 mm 0,0 UV-I 0 W/m 4,0 C 11,1 C 0,0 km/h (0 Bft) 0,00 %
13.04.2015 23:00 11,1 C 59 % 1028,2 hPa 0,0 l/m 0,2 km/h (0 Bft) N 0,00 h 0,000 mm 0,0 UV-I 0 W/m 3,4 C 11,1 C 1,0 km/h (0 Bft) 0,00 %
14.04.2015 00:00 11,1 C 54 % 1028,4 hPa 0,0 l/m 2,5 km/h (1 Bft) W-SW 0,00 h 0,000 mm 0,0 UV-I 0 W/m 2,2 C 11,1 C 3,0 km/h (1 Bft) 0,00 %
14.04.2015 01:00 10,8 C 52 % 1028,6 hPa 0,0 l/m 0,6 km/h (0 Bft) N 0,00 h 0,000 mm 0,0 UV-I 0 W/m 1,4 C 10,8 C 1,0 km/h (0 Bft) 0,00 %
14.04.2015 02:00 10,3 C 53 % 1028,9 hPa 0,0 l/m 0,7 km/h (0 Bft) O-SO 0,00 h 0,000 mm 0,0 UV-I 0 W/m 1,1 C 10,3 C 2,0 km/h (1 Bft) 0,00 %
14.04.2015 03:00 8,8 C 52 % 1029,4 hPa 0,0 l/m 0,7 km/h (0 Bft) S-SW 0,00 h 0,000 mm 0,0 UV-I 0 W/m -0,6 C 8,8 C 3,0 km/h (1 Bft) 0,00 %
14.04.2015 04:00 8,0 C 52 % 1029,5 hPa 0,0 l/m 0,0 km/h (0 Bft) N 0,00 h 0,000 mm 0,0 UV-I 0 W/m -1,3 C 8,0 C 0,0 km/h (0 Bft) 0,00 %
14.04.2015 05:00 7,6 C 51 % 1029,5 hPa 0,0 l/m 0,0 km/h (0 Bft) N 0,00 h 0,000 mm 0,0 UV-I 0 W/m -2,0 C 7,6 C 0,0 km/h (0 Bft) 0,00 %
14.04.2015 06:00 6,6 C 56 % 1029,7 hPa 0,0 l/m 0,0 km/h (0 Bft) N 0,00 h 0,000 mm 0,0 UV-I 11 W/m -1,7 C 6,6 C 0,0 km/h (0 Bft) 0,00 %
14.04.2015 07:00 7,1 C 61 % 1030,2 hPa 0,0 l/m 0,0 km/h (0 Bft) N 0,00 h 0,000 mm 1,0 UV-I 38 W/m -0,0 C 7,1 C 0,0 km/h (0 Bft) 0,00 %
14.04.2015 08:00 9,1 C 53 % 1029,8 hPa 0,0 l/m 0,0 km/h (0 Bft) SW 0,00 h 0,000 mm 1,3 UV-I 156 W/m -0,1 C 9,1 C 0,0 km/h (0 Bft) 0,00 %
14.04.2015 09:00 11,3 C 49 % 1029,4 hPa 0,0 l/m 2,3 km/h (1 Bft) W-SW 0,25 h 0,000 mm 2,0 UV-I 262 W/m 1,0 C 11,3 C 4,0 km/h (1 Bft) 0,00 %
14.04.2015 10:00 13,0 C 46 % 1029,2 hPa 0,0 l/m 1,2 km/h (1 Bft) SW 0,50 h 0,000 mm 2,7 UV-I 353 W/m 1,5 C 13,0 C 3,0 km/h (1 Bft) 0,00 %
14.04.2015 11:00 14,5 C 41 % 1028,6 hPa 0,0 l/m 2,6 km/h (1 Bft) W-SW 1,00 h 0,000 mm 4,3 UV-I 484 W/m 1,4 C 14,4 C 6,0 km/h (2 Bft) 0,00 %
14.04.2015 12:00 15,6 C 41 % 1027,7 hPa 0,0 l/m 3,5 km/h (1 Bft) W-NW 0,75 h 0,000 mm 4,0 UV-I 478 W/m 2,3 C 15,0 C 6,9 km/h (2 Bft) 0,00 %
14.04.2015 13:00 16,5 C 38 % 1026,8 hPa 0,0 l/m 9,6 km/h (2 Bft) W-SW 1,00 h 0,000 mm 4,7 UV-I 616 W/m 2,0 C 14,9 C 13,8 km/h (3 Bft) 0,00 %
14.04.2015 14:00 17,1 C 36 % 1026,0 hPa 0,0 l/m 8,5 km/h (2 Bft) S-SW 1,00 h 0,000 mm 3,3 UV-I 628 W/m 1,8 C 15,7 C 13,0 km/h (3 Bft) 0,00 %
14.04.2015 15:00 17,6 C 37 % 1025,1 hPa 0,0 l/m 5,6 km/h (1 Bft) W-SW 1,00 h 0,000 mm 2,0 UV-I 740 W/m 2,6 C 17,3 C 7,9 km/h (2 Bft) 0,00 %
14.04.2015 16:00 17,1 C 37 % 1024,4 hPa 0,0 l/m 6,9 km/h (2 Bft) W-SW 0,75 h 0,000 mm 2,0 UV-I 349 W/m 2,1 C 16,2 C 9,9 km/h (2 Bft) 0,00 %
14.04.2015 17:00 17,5 C 38 % 1023,7 hPa 0,0 l/m 11,9 km/h (2 Bft) W-SW 1,00 h 0,000 mm 1,0 UV-I 461 W/m 3,1 C 15,6 C 16,9 km/h (3 Bft) 0,00 %
14.04.2015 18:00 16,6 C 40 % 1023,6 hPa 0,0 l/m 3,7 km/h (1 Bft) S-SW 0,25 h 0,000 mm 1,0 UV-I 98 W/m 3,0 C 16,6 C 6,9 km/h (2 Bft) 0,00 %
14.04.2015 19:00 15,7 C 44 % 1023,4 hPa 0,0 l/m 3,2 km/h (1 Bft) S 0,00 h 0,000 mm 0,0 UV-I 7 W/m 3,5 C 15,7 C 4,9 km/h (1 Bft) 0,00 %
14.04.2015 20:00 14,9 C 49 % 1023,8 hPa 0,0 l/m 2,2 km/h (1 Bft) W-SW 0,00 h 0,000 mm 0,0 UV-I 0 W/m 4,2 C 14,9 C 4,0 km/h (1 Bft) 0,00 %
14.04.2015 21:00 14,6 C 48 % 1024,1 hPa 0,0 l/m 2,3 km/h (1 Bft) W-SW 0,00 h 0,000 mm 0,0 UV-I 0 W/m 3,8 C 14,6 C 4,0 km/h (1 Bft) 0,00 %
14.04.2015 22:00 13,8 C 52 % 1024,2 hPa 0,0 l/m 0,0 km/h (0 Bft) N 0,00 h 0,000 mm 0,0 UV-I 0 W/m 4,2 C 13,8 C 0,0 km/h (0 Bft) 0,00 %
14.04.2015 23:00 11,9 C 60 % 1024,4 hPa 0,0 l/m 0,0 km/h (0 Bft) N 0,00 h 0,000 mm 0,0 UV-I 0 W/m 4,2 C 11,9 C 0,0 km/h (0 Bft) 0,00 %
15.04.2015 00:00 11,0 C 61 % 1024,5 hPa 0,0 l/m 0,3 km/h (0 Bft) W-SW 0,00 h 0,000 mm 0,0 UV-I 0 W/m 3,8 C 11,0 C 1,0 km/h (0 Bft) 0,00 %
15.04.2015 01:00 10,7 C 60 % 1024,0 hPa 0,0 l/m 0,1 km/h (0 Bft) N 0,00 h 0,000 mm 0,0 UV-I 0 W/m 3,2 C 10,7 C 1,0 km/h (0 Bft) 0,00 %
15.04.2015 02:00 10,6 C 59 % 1023,5 hPa 0,0 l/m 0,0 km/h (0 Bft) N 0,00 h 0,000 mm 0,0 UV-I 0 W/m 3,0 C 10,6 C 0,0 km/h (0 Bft) 0,00 %
15.04.2015 03:00 10,3 C 60 % 1023,2 hPa 0,0 l/m 0,4 km/h (0 Bft) W-SW 0,00 h 0,000 mm 0,0 UV-I 0 W/m 2,9 C 10,3 C 2,0 km/h (1 Bft) 0,00 %
15.04.2015 04:00 9,6 C 62 % 1023,0 hPa 0,0 l/m 0,3 km/h (0 Bft) SW 0,00 h 0,000 mm 0,0 UV-I 0 W/m 2,6 C 9,6 C 1,0 km/h (0 Bft) 0,00 %
15.04.2015 05:00 8,9 C 63 % 1022,9 hPa 0,0 l/m 0,7 km/h (0 Bft) W-SW 0,00 h 0,000 mm 0,0 UV-I 0 W/m 2,3 C 8,9 C 2,0 km/h (1 Bft) 0,00 %
15.04.2015 06:00 8,6 C 64 % 1022,7 hPa 0,0 l/m 0,0 km/h (0 Bft) N 0,50 h 0,000 mm 0,0 UV-I 34 W/m 2,2 C 8,6 C 0,0 km/h (0 Bft) 0,00 %
15.04.2015 07:00 12,1 C 53 % 1022,3 hPa 0,0 l/m 2,2 km/h (1 Bft) S-SW 1,00 h 0,000 mm 1,0 UV-I 153 W/m 2,8 C 11,8 C 4,0 km/h (1 Bft) 0,00 %
15.04.2015 08:00 13,8 C 49 % 1022,1 hPa 0,0 l/m 2,3 km/h (1 Bft) SW 0,00 h 0,000 mm 1,7 UV-I 190 W/m 3,1 C 13,8 C 4,0 km/h (1 Bft) 0,00 %
15.04.2015 09:00 16,1 C 45 % 1021,7 hPa 0,0 l/m 0,0 km/h (0 Bft) W 0,25 h 0,000 mm 2,0 UV-I 276 W/m 4,0 C 16,1 C 0,0 km/h (0 Bft) 0,00 %
15.04.2015 10:00 18,3 C 41 % 1021,1 hPa 0,0 l/m 4,4 km/h (1 Bft) W-NW 1,00 h 0,000 mm 3,7 UV-I 406 W/m 4,7 C 18,2 C 6,9 km/h (2 Bft) 0,00 %
15.04.2015 11:00 20,5 C 36 % 1019,9 hPa 0,0 l/m 1,9 km/h (1 Bft) W-SW 1,00 h 0,000 mm 4,3 UV-I 553 W/m 5,0 C 20,4 C 4,0 km/h (1 Bft) 0,00 %
15.04.2015 12:00 21,5 C 31 % 1018,8 hPa 0,0 l/m 8,4 km/h (2 Bft) W-SW 1,00 h 0,000 mm 5,0 UV-I 688 W/m 3,7 C 20,7 C 10,9 km/h (2 Bft) 0,00 %
15.04.2015 13:00 22,3 C 30 % 1017,9 hPa 0,0 l/m 3,5 km/h (1 Bft) S-SW 1,00 h 0,000 mm 5,0 UV-I 749 W/m 3,6 C 22,1 C 6,9 km/h (2 Bft) 0,00 %
15.04.2015 14:00 23,3 C 26 % 1017,0 hPa 0,0 l/m 7,3 km/h (2 Bft) S 1,00 h 0,000 mm 3,0 UV-I 768 W/m 2,8 C 22,7 C 10,9 km/h (2 Bft) 0,00 %
15.04.2015 15:00 23,1 C 26 % 1016,3 hPa 0,0 l/m 3,8 km/h (1 Bft) W-SW 1,00 h 0,000 mm 2,0 UV-I 698 W/m 2,3 C 23,1 C 4,9 km/h (1 Bft) 0,00 %
15.04.2015 16:00 22,5 C 27 % 1015,5 hPa 0,0 l/m 3,4 km/h (1 Bft) W-SW 1,00 h 0,000 mm 1,7 UV-I 708 W/m 2,4 C 22,5 C 6,9 km/h (2 Bft) 0,00 %
15.04.2015 17:00 23,2 C 24 % 1014,5 hPa 0,0 l/m 0,3 km/h (0 Bft) N 1,00 h 0,000 mm 1,0 UV-I 661 W/m 1,5 C 23,2 C 2,0 km/h (1 Bft) 0,00 %
15.04.2015 18:00 22,5 C 23 % 1014,0 hPa 0,0 l/m 0,4 km/h (0 Bft) W-SW 1,00 h 0,000 mm 1,0 UV-I 507 W/m 0,5 C 22,5 C 1,0 km/h (0 Bft) 0,00 %
15.04.2015 19:00 19,8 C 32 % 1013,9 hPa 0,0 l/m 0,1 km/h (0 Bft) N 0,50 h 0,000 mm 0,0 UV-I 86 W/m 2,4 C 19,8 C 1,0 km/h (0 Bft) 0,00 %
15.04.2015 20:00 16,3 C 42 % 1014,3 hPa 0,0 l/m 0,0 km/h (0 Bft) N 0,00 h 0,000 mm 0,0 UV-I 0 W/m 3,3 C 16,3 C 0,0 km/h (0 Bft) 0,00 %
15.04.2015 21:00 13,7 C 52 % 1014,6 hPa 0,0 l/m 0,0 km/h (0 Bft) N 0,00 h 0,000 mm 0,0 UV-I 0 W/m 4,1 C 13,7 C 0,0 km/h (0 Bft) 0,00 %
15.04.2015 22:00 12,4 C 54 % 1014,6 hPa 0,0 l/m 0,0 km/h (0 Bft) N 0,00 h 0,000 mm 0,0 UV-I 0 W/m 3,2 C 12,4 C 0,0 km/h (0 Bft) 0,00 %
15.04.2015 23:00 11,2 C 56 % 1014,8 hPa 0,0 l/m 0,0 km/h (0 Bft) N 0,00 h 0,000 mm 0,0 UV-I 0 W/m 2,8 C 11,2 C 0,0 km/h (0 Bft) 0,00 %
16.04.2015 00:00 11,3 C 54 % 1014,8 hPa 0,0 l/m 0,0 km/h (0 Bft) N 0,00 h 0,000 mm 0,0 UV-I 0 W/m 2,2 C 11,3 C 0,0 km/h (0 Bft) 0,00 %
16.04.2015 01:00 10,4 C 58 % 1014,6 hPa 0,0 l/m 0,0 km/h (0 Bft) N 0,00 h 0,000 mm 0,0 UV-I 0 W/m 2,4 C 10,4 C 0,0 km/h (0 Bft) 0,00 %
16.04.2015 02:00 9,8 C 60 % 1014,3 hPa 0,0 l/m 0,0 km/h (0 Bft) N 0,00 h 0,000 mm 0,0 UV-I 0 W/m 2,4 C 9,8 C 0,0 km/h (0 Bft) 0,00 %
16.04.2015 03:00 9,0 C 61 % 1013,8 hPa 0,0 l/m 0,0 km/h (0 Bft) N 0,00 h 0,000 mm 0,0 UV-I 0 W/m 1,9 C 9,0 C 0,0 km/h (0 Bft) 0,00 %
16.04.2015 04:00 7,6 C 69 % 1014,0 hPa 0,0 l/m 0,0 km/h (0 Bft) N 0,00 h 0,000 mm 0,0 UV-I 0 W/m 2,2 C 7,6 C 0,0 km/h (0 Bft) 0,00 %
16.04.2015 05:00 6,0 C 77 % 1014,2 hPa 0,0 l/m 0,0 km/h (0 Bft) N 0,00 h 0,000 mm 0,0 UV-I 0 W/m 2,2 C 6,0 C 0,0 km/h (0 Bft) 0,00 %
16.04.2015 06:00 6,1 C 76 % 1014,2 hPa 0,0 l/m 0,0 km/h (0 Bft) N 0,25 h 0,000 mm 0,0 UV-I 39 W/m 2,0 C 6,1 C 0,0 km/h (0 Bft) 0,00 %
16.04.2015 07:00 11,8 C 56 % 1013,6 hPa 0,0 l/m 0,0 km/h (0 Bft) N 1,00 h 0,000 mm 1,0 UV-I 166 W/m 3,2 C 11,8 C 0,0 km/h (0 Bft) 0,00 %
16.04.2015 08:00 15,3 C 47 % 1013,1 hPa 0,0 l/m 0,0 km/h (0 Bft) N 0,25 h 0,000 mm 1,7 UV-I 200 W/m 4,0 C 15,3 C 0,0 km/h (0 Bft) 0,00 %
16.04.2015 09:00 17,9 C 43 % 1013,1 hPa 0,0 l/m 0,0 km/h (0 Bft) N 0,50 h 0,000 mm 2,0 UV-I 294 W/m 5,1 C 17,9 C 0,0 km/h (0 Bft) 0,00 %
16.04.2015 10:00 19,2 C 35 % 1013,1 hPa 0,0 l/m 1,7 km/h (1 Bft) SW 1,00 h 0,000 mm 3,7 UV-I 426 W/m 3,3 C 19,2 C 3,0 km/h (1 Bft) 0,00 %
16.04.2015 11:00 21,6 C 31 % 1012,9 hPa 0,0 l/m 2,5 km/h (1 Bft) S 1,00 h 0,000 mm 4,0 UV-I 535 W/m 3,7 C 21,6 C 4,0 km/h (1 Bft) 0,00 %
16.04.2015 12:00 23,0 C 27 % 1012,1 hPa 0,0 l/m 1,5 km/h (1 Bft) W-SW 1,00 h 0,000 mm 4,7 UV-I 597 W/m 2,8 C 23,0 C 2,0 km/h (1 Bft) 0,00 %
16.04.2015 13:00 24,0 C 25 % 1011,3 hPa 0,0 l/m 2,9 km/h (1 Bft) W-SW 1,00 h 0,000 mm 4,0 UV-I 635 W/m 2,7 C 23,8 C 4,0 km/h (1 Bft) 0,00 %
16.04.2015 14:00 24,0 C 25 % 1010,5 hPa 0,0 l/m 8,0 km/h (2 Bft) W-SW 1,00 h 0,000 mm 3,3 UV-I 596 W/m 2,7 C 23,2 C 10,9 km/h (2 Bft) 0,00 %
16.04.2015 15:00 22,8 C 27 % 1010,0 hPa 0,0 l/m 3,8 km/h (1 Bft) W-SW 0,25 h 0,000 mm 2,0 UV-I 313 W/m 3,0 C 22,6 C 5,9 km/h (2 Bft) 0,00 %
16.04.2015 16:00 22,1 C 31 % 1009,9 hPa 0,0 l/m 5,8 km/h (1 Bft) W-SW 0,00 h 0,000 mm 1,3 UV-I 243 W/m 4,2 C 21,8 C 7,9 km/h (2 Bft) 0,00 %
16.04.2015 17:00 21,3 C 36 % 1009,7 hPa 0,0 l/m 0,0 km/h (0 Bft) N 0,00 h 0,000 mm 1,0 UV-I 165 W/m 5,4 C 21,3 C 0,0 km/h (0 Bft) 0,00 %
16.04.2015 18:00 20,7 C 39 % 1009,4 hPa 0,0 l/m 0,0 km/h (0 Bft) N 0,75 h 0,000 mm 1,0 UV-I 132 W/m 6,1 C 20,7 C 0,0 km/h (0 Bft) 0,00 %
16.04.2015 19:00 18,5 C 47 % 1009,5 hPa 0,0 l/m 0,0 km/h (0 Bft) N 0,00 h 0,000 mm 0,0 UV-I 26 W/m 7,0 C 18,5 C 0,0 km/h (0 Bft) 0,00 %
16.04.2015 20:00 16,8 C 50 % 1009,9 hPa 0,0 l/m 0,0 km/h (0 Bft) N 0,00 h 0,000 mm 0,0 UV-I 0 W/m 6,1 C 16,8 C 0,0 km/h (0 Bft) 0,00 %
16.04.2015 21:00 15,9 C 53 % 1010,2 hPa 0,0 l/m 0,0 km/h (0 Bft) N 0,00 h 0,000 mm 0,0 UV-I 0 W/m 6,2 C 15,9 C 0,0 km/h (0 Bft) 0,00 %
16.04.2015 22:00 14,2 C 62 % 1010,2 hPa 0,0 l/m 0,0 km/h (0 Bft) N 0,00 h 0,000 mm 0,0 UV-I 0 W/m 7,0 C 14,2 C 0,0 km/h (0 Bft) 0,00 %
16.04.2015 23:00 13,6 C 61 % 1010,4 hPa 0,0 l/m 0,0 km/h (0 Bft) N 0,00 h 0,000 mm 0,0 UV-I 0 W/m 6,3 C 13,6 C 0,0 km/h (0 Bft) 0,00 %
17.04.2015 00:00 13,2 C 57 % 1010,4 hPa 0,0 l/m 0,0 km/h (0 Bft) N 0,00 h 0,000 mm 0,0 UV-I 0 W/m 5,0 C 13,2 C 0,0 km/h (0 Bft) 0,00 %
17.04.2015 01:00 12,8 C 56 % 1010,5 hPa 0,0 l/m 0,0 km/h (0 Bft) N 0,00 h 0,000 mm 0,0 UV-I 0 W/m 4,1 C 12,8 C 0,0 km/h (0 Bft) 0,00 %
17.04.2015 02:00 12,3 C 57 % 1010,1 hPa 0,0 l/m 0,0 km/h (0 Bft) N 0,00 h 0,000 mm 0,0 UV-I 0 W/m 4,1 C 12,3 C 0,0 km/h (0 Bft) 0,00 %
17.04.2015 03:00 11,9 C 58 % 1010,0 hPa 0,0 l/m 0,2 km/h (0 Bft) W-SW 0,00 h 0,000 mm 0,0 UV-I 0 W/m 4,0 C 11,9 C 1,0 km/h (0 Bft) 0,00 %
17.04.2015 04:00 12,7 C 56 % 1010,0 hPa 0,0 l/m 4,1 km/h (1 Bft) W-SW 0,00 h 0,000 mm 0,0 UV-I 0 W/m 4,0 C 12,0 C 6,0 km/h (2 Bft) 0,00 %
17.04.2015 05:00 13,4 C 54 % 1009,9 hPa 0,0 l/m 3,3 km/h (1 Bft) S-SW 0,00 h 0,000 mm 0,0 UV-I 0 W/m 4,4 C 13,3 C 6,0 km/h (2 Bft) 0,00 %
17.04.2015 06:00 13,8 C 59 % 1010,2 hPa 0,0 l/m 1,4 km/h (1 Bft) N 0,00 h 0,000 mm 0,0 UV-I 11 W/m 5,9 C 13,8 C 2,0 km/h (1 Bft) 0,00 %
17.04.2015 07:00 13,0 C 70 % 1010,3 hPa 0,0 l/m 0,0 km/h (0 Bft) N 0,00 h 0,000 mm 1,0 UV-I 45 W/m 7,5 C 13,0 C 0,0 km/h (0 Bft) 0,00 %
17.04.2015 08:00 13,3 C 78 % 1010,3 hPa 0,6 l/m 0,0 km/h (0 Bft) N 0,00 h 0,000 mm 1,3 UV-I 98 W/m 9,4 C 13,3 C 0,0 km/h (0 Bft) 0,00 %
17.04.2015 09:00 13,1 C 79 % 1010,4 hPa 0,3 l/m 0,0 km/h (0 Bft) N 0,00 h 0,000 mm 1,0 UV-I 110 W/m 9,6 C 13,1 C 0,0 km/h (0 Bft) 0,00 %
17.04.2015 10:00 12,6 C 85 % 1010,5 hPa 0,6 l/m 0,0 km/h (0 Bft) N 0,00 h 0,000 mm 1,0 UV-I 124 W/m 10,1 C 12,6 C 0,0 km/h (0 Bft) 0,00 %
17.04.2015 11:00 14,6 C 79 % 1009,8 hPa 0,0 l/m 0,0 km/h (0 Bft) N 0,00 h 0,000 mm 1,3 UV-I 244 W/m 10,8 C 14,6 C 0,0 km/h (0 Bft) 0,00 %
17.04.2015 12:00 15,5 C 71 % 1009,2 hPa 0,0 l/m 0,0 km/h (0 Bft) W-SW 0,00 h 0,000 mm 1,0 UV-I 140 W/m 10,3 C 15,5 C 0,0 km/h (0 Bft) 0,00 %
17.04.2015 13:00 13,0 C 89 % 1009,7 hPa 6,9 l/m 4,8 km/h (1 Bft) W-SW 0,00 h 0,000 mm 1,0 UV-I 83 W/m 11,1 C 12,3 C 8,9 km/h (2 Bft) 0,00 %
17.04.2015 14:00 12,2 C 95 % 1009,6 hPa 0,6 l/m 0,6 km/h (0 Bft) W-SW 0,00 h 0,000 mm 1,0 UV-I 128 W/m 11,4 C 12,2 C 1,0 km/h (0 Bft) 0,00 %
17.04.2015 15:00 12,7 C 93 % 1009,1 hPa 0,0 l/m 1,3 km/h (1 Bft) N 0,00 h 0,000 mm 1,3 UV-I 127 W/m 11,5 C 12,7 C 3,0 km/h (1 Bft) 0,00 %
17.04.2015 16:00 14,2 C 84 % 1008,3 hPa 0,6 l/m 0,4 km/h (0 Bft) W-SW 0,50 h 0,000 mm 1,5 UV-I 353 W/m 11,5 C 14,2 C 3,0 km/h (1 Bft) 0,00 %
17.04.2015 17:00 11,8 C 93 % 1009,0 hPa 5,5 l/m 6,2 km/h (2 Bft) W-SW 0,00 h 0,000 mm 0,0 UV-I 14 W/m 10,6 C 10,6 C 8,9 km/h (2 Bft) 0,00 %
17.04.2015 18:00 10,4 C 98 % 1009,9 hPa 3,0 l/m 1,8 km/h (1 Bft) W-SW 0,00 h 0,000 mm 0,0 UV-I 23 W/m 10,1 C 10,4 C 5,0 km/h (1 Bft) 0,00 %
17.04.2015 19:00 10,1 C 99 % 1010,3 hPa 1,4 l/m 1,6 km/h (1 Bft) NW 0,00 h 0,000 mm 0,0 UV-I 5 W/m 9,9 C 10,1 C 4,0 km/h (1 Bft) 0,00 %
17.04.2015 20:00 9,5 C 98 % 1011,7 hPa 3,6 l/m 5,1 km/h (1 Bft) N-NO 0,00 h 0,000 mm 0,0 UV-I 0 W/m 9,2 C 8,4 C 7,9 km/h (2 Bft) 0,00 %
17.04.2015 21:00 7,9 C 99 % 1013,4 hPa 3,0 l/m 1,6 km/h (1 Bft) O 0,00 h 0,000 mm 0,0 UV-I 0 W/m 7,7 C 7,9 C 3,0 km/h (1 Bft) 0,00 %
17.04.2015 22:00 7,7 C 99 % 1014,5 hPa 1,2 l/m 0,0 km/h (0 Bft) N 0,00 h 0,000 mm 0,0 UV-I 0 W/m 7,6 C 7,7 C 0,0 km/h (0 Bft) 0,00 %
17.04.2015 23:00 7,6 C 99 % 1015,7 hPa 1,5 l/m 0,0 km/h (0 Bft) N 0,00 h 0,000 mm 0,0 UV-I 0 W/m 7,3 C 7,6 C 0,0 km/h (0 Bft) 0,00 %
18.04.2015 00:00 6,9 C 97 % 1016,3 hPa 0,6 l/m 0,4 km/h (0 Bft) SO 0,00 h 0,000 mm 0,0 UV-I 0 W/m 6,5 C 6,9 C 1,0 km/h (0 Bft) 0,00 %
18.04.2015 01:00 6,6 C 97 % 1016,9 hPa 0,0 l/m 0,0 km/h (0 Bft) N 0,00 h 0,000 mm 0,0 UV-I 0 W/m 6,1 C 6,6 C 0,0 km/h (0 Bft) 0,00 %
18.04.2015 02:00 5,8 C 95 % 1017,2 hPa 0,0 l/m 0,0 km/h (0 Bft) N 0,00 h 0,000 mm 0,0 UV-I 0 W/m 5,1 C 5,8 C 0,0 km/h (0 Bft) 0,00 %
18.04.2015 03:00 5,7 C 97 % 1017,6 hPa 0,0 l/m 0,0 km/h (0 Bft) N 0,00 h 0,000 mm 0,0 UV-I 0 W/m 5,2 C 5,7 C 0,0 km/h (0 Bft) 0,00 %
18.04.2015 04:00 5,3 C 98 % 1018,0 hPa 0,0 l/m 0,0 km/h (0 Bft) N 0,00 h 0,000 mm 0,0 UV-I 0 W/m 5,0 C 5,3 C 0,0 km/h (0 Bft) 0,00 %
18.04.2015 05:00 4,9 C 84 % 1018,5 hPa 0,0 l/m 0,1 km/h (0 Bft) N 0,00 h 0,000 mm 0,0 UV-I 0 W/m 2,4 C 4,9 C 1,0 km/h (0 Bft) 0,00 %
18.04.2015 06:00 4,7 C 84 % 1019,2 hPa 0,0 l/m 0,0 km/h (0 Bft) N 0,00 h 0,000 mm 0,0 UV-I 0 W/m 2,2 C 4,7 C 0,0 km/h (0 Bft) 0,00 %
18.04.2015 07:00 4,6 C 90 % 1019,8 hPa 0,0 l/m 0,0 km/h (0 Bft) N 0,00 h 0,000 mm 0,0 UV-I 7 W/m 3,2 C 4,6 C 0,0 km/h (0 Bft) 0,00 %
18.04.2015 08:00 5,0 C 85 % 1020,3 hPa 0,0 l/m 0,0 km/h (0 Bft) N 0,00 h 0,000 mm 1,0 UV-I 66 W/m 2,7 C 5,0 C 0,0 km/h (0 Bft) 0,00 %
18.04.2015 09:00 6,2 C 74 % 1020,7 hPa 0,0 l/m 0,0 km/h (0 Bft) N 0,00 h 0,000 mm 2,0 UV-I 150 W/m 1,8 C 6,2 C 0,0 km/h (0 Bft) 0,00 %
18.04.2015 10:00 9,2 C 61 % 1020,6 hPa 0,0 l/m 0,3 km/h (0 Bft) S-SO 0,50 h 0,000 mm 2,3 UV-I 371 W/m 2,0 C 9,2 C 2,0 km/h (1 Bft) 0,00 %
18.04.2015 11:00 6,9 C 67 % 1021,5 hPa 0,3 l/m 4,2 km/h (1 Bft) W-NW 0,00 h 0,000 mm 2,0 UV-I 164 W/m 1,2 C 5,5 C 5,9 km/h (2 Bft) 0,00 %
18.04.2015 12:00 8,8 C 61 % 1021,4 hPa 0,0 l/m 1,2 km/h (1 Bft) SW 0,50 h 0,000 mm 3,0 UV-I 504 W/m 1,6 C 8,8 C 3,0 km/h (1 Bft) 0,00 %
18.04.2015 13:00 9,9 C 55 % 1021,4 hPa 0,0 l/m 2,9 km/h (1 Bft) S-SW 0,50 h 0,000 mm 4,7 UV-I 635 W/m 1,2 C 9,8 C 6,9 km/h (2 Bft) 0,00 %
18.04.2015 14:00 10,8 C 52 % 1021,5 hPa 0,0 l/m 3,0 km/h (1 Bft) W-SW 0,75 h 0,000 mm 3,0 UV-I 637 W/m 1,3 C 10,8 C 4,9 km/h (1 Bft) 0,00 %
18.04.2015 15:00 9,3 C 55 % 1021,7 hPa 0,0 l/m 5,2 km/h (1 Bft) S 0,50 h 0,000 mm 2,0 UV-I 450 W/m 0,6 C 8,4 C 6,9 km/h (2 Bft) 0,00 %
18.04.2015 16:00 8,9 C 59 % 1022,0 hPa 0,0 l/m 1,9 km/h (1 Bft) W-SW 0,25 h 0,000 mm 1,3 UV-I 108 W/m 1,3 C 8,8 C 3,0 km/h (1 Bft) 0,00 %
18.04.2015 17:00 7,6 C 62 % 1022,1 hPa 0,0 l/m 2,8 km/h (1 Bft) N 0,50 h 0,000 mm 1,3 UV-I 365 W/m 0,8 C 6,8 C 4,9 km/h (1 Bft) 0,00 %
18.04.2015 18:00 9,6 C 52 % 1021,8 hPa 0,0 l/m 0,6 km/h (0 Bft) W 1,00 h 0,000 mm 1,0 UV-I 338 W/m 0,2 C 9,6 C 1,0 km/h (0 Bft) 0,00 %
18.04.2015 19:00 7,4 C 65 % 1022,6 hPa 0,0 l/m 0,1 km/h (0 Bft) N 0,00 h 0,000 mm 0,0 UV-I 27 W/m 1,2 C 7,4 C 1,0 km/h (0 Bft) 0,00 %
18.04.2015 20:00 6,1 C 75 % 1023,3 hPa 0,0 l/m 0,0 km/h (0 Bft) O-SO 0,00 h 0,000 mm 0,0 UV-I 0 W/m 2,0 C 6,1 C 0,0 km/h (0 Bft) 0,00 %
18.04.2015 21:00 5,6 C 81 % 1024,2 hPa 0,0 l/m 1,2 km/h (1 Bft) N 0,00 h 0,000 mm 0,0 UV-I 0 W/m 2,7 C 5,6 C 2,0 km/h (1 Bft) 0,00 %
18.04.2015 22:00 5,5 C 73 % 1024,2 hPa 0,0 l/m 0,0 km/h (0 Bft) N 0,00 h 0,000 mm 0,0 UV-I 0 W/m 1,0 C 5,5 C 0,0 km/h (0 Bft) 0,00 %
18.04.2015 23:00 5,1 C 69 % 1024,2 hPa 0,0 l/m 0,0 km/h (0 Bft) N 0,00 h 0,000 mm 0,0 UV-I 0 W/m -0,1 C 5,1 C 0,0 km/h (0 Bft) 0,00 %
19.04.2015 00:00 4,3 C 80 % 1024,3 hPa 0,0 l/m 0,0 km/h (0 Bft) N 0,00 h 0,000 mm 0,0 UV-I 0 W/m 1,2 C 4,3 C 0,0 km/h (0 Bft) 0,00 %
19.04.2015 01:00 3,2 C 87 % 1024,4 hPa 0,0 l/m 0,0 km/h (0 Bft) N 0,00 h 0,000 mm 0,0 UV-I 0 W/m 1,1 C 3,2 C 0,0 km/h (0 Bft) 0,00 %
19.04.2015 02:00 2,5 C 90 % 1024,1 hPa 0,0 l/m 0,0 km/h (0 Bft) N 0,00 h 0,000 mm 0,0 UV-I 0 W/m 0,9 C 2,5 C 0,0 km/h (0 Bft) 0,00 %
19.04.2015 03:00 1,9 C 87 % 1023,7 hPa 0,0 l/m 0,0 km/h (0 Bft) N 0,00 h 0,000 mm 0,0 UV-I 0 W/m -0,0 C 1,9 C 0,0 km/h (0 Bft) 0,00 %
19.04.2015 04:00 1,0 C 91 % 1023,8 hPa 0,0 l/m 0,0 km/h (0 Bft) N 0,00 h 0,000 mm 0,0 UV-I 0 W/m -0,3 C 1,0 C 0,0 km/h (0 Bft) 0,00 %
19.04.2015 05:00 0,1 C 94 % 1023,6 hPa 0,0 l/m 0,0 km/h (0 Bft) N 0,00 h 0,000 mm 0,0 UV-I 0 W/m -0,8 C 0,1 C 0,0 km/h (0 Bft) 0,00 %
19.04.2015 06:00 0,1 C 95 % 1023,2 hPa 0,0 l/m 0,0 km/h (0 Bft) N 0,50 h 0,000 mm 0,0 UV-I 40 W/m -0,7 C 0,1 C 0,0 km/h (0 Bft) 0,00 %
19.04.2015 07:00 2,8 C 90 % 1023,1 hPa 0,0 l/m 0,0 km/h (0 Bft) N 1,00 h 0,000 mm 1,0 UV-I 168 W/m 1,3 C 2,8 C 0,0 km/h (0 Bft) 0,00 %
19.04.2015 08:00 4,6 C 80 % 1022,8 hPa 0,0 l/m 0,4 km/h (0 Bft) SO 0,50 h 0,000 mm 1,7 UV-I 210 W/m 1,4 C 4,6 C 1,0 km/h (0 Bft) 0,00 %
19.04.2015 09:00 6,8 C 65 % 1021,1 hPa 0,0 l/m 1,5 km/h (1 Bft) S-SO 0,50 h 0,000 mm 2,3 UV-I 296 W/m 0,7 C 6,8 C 4,9 km/h (1 Bft) 0,00 %
19.04.2015 10:00 8,0 C 55 % 1020,7 hPa 0,0 l/m 4,0 km/h (1 Bft) O-NO 1,00 h 0,000 mm 3,7 UV-I 402 W/m -0,7 C 8,0 C 6,9 km/h (2 Bft) 0,00 %
19.04.2015 11:00 8,7 C 46 % 1020,3 hPa 0,0 l/m 8,4 km/h (2 Bft) O-NO 1,00 h 0,000 mm 4,3 UV-I 521 W/m -2,2 C 7,2 C 12,9 km/h (3 Bft) 0,00 %
19.04.2015 12:00 9,7 C 45 % 1019,8 hPa 0,0 l/m 5,9 km/h (2 Bft) O 1,00 h 0,000 mm 5,0 UV-I 610 W/m -1,7 C 8,7 C 9,9 km/h (2 Bft) 0,00 %
19.04.2015 13:00 10,3 C 44 % 1019,1 hPa 0,0 l/m 8,3 km/h (2 Bft) O-SO 1,00 h 0,000 mm 5,0 UV-I 672 W/m -1,5 C 8,1 C 11,9 km/h (2 Bft) 0,00 %
19.04.2015 14:00 11,4 C 42 % 1018,0 hPa 0,0 l/m 6,4 km/h (2 Bft) O-NO 1,00 h 0,000 mm 4,3 UV-I 718 W/m -1,2 C 10,7 C 9,9 km/h (2 Bft) 0,00 %
19.04.2015 15:00 12,2 C 39 % 1017,4 hPa 0,0 l/m 6,1 km/h (2 Bft) O 1,00 h 0,000 mm 2,0 UV-I 719 W/m -1,3 C 11,6 C 7,9 km/h (2 Bft) 0,00 %
19.04.2015 16:00 12,4 C 40 % 1017,1 hPa 0,0 l/m 8,8 km/h (2 Bft) O-NO 1,00 h 0,000 mm 2,0 UV-I 643 W/m -1,1 C 10,9 C 11,9 km/h (2 Bft) 0,00 %
19.04.2015 17:00 12,6 C 40 % 1017,0 hPa 0,0 l/m 4,8 km/h (1 Bft) NO 0,75 h 0,000 mm 1,0 UV-I 591 W/m -0,8 C 12,4 C 8,9 km/h (2 Bft) 0,00 %
19.04.2015 18:00 12,6 C 41 % 1017,5 hPa 0,0 l/m 5,4 km/h (1 Bft) O-SO 1,00 h 0,000 mm 1,0 UV-I 452 W/m -0,3 C 12,1 C 7,9 km/h (2 Bft) 0,00 %
19.04.2015 19:00 11,8 C 44 % 1018,3 hPa 0,0 l/m 0,0 km/h (0 Bft) N 1,00 h 0,000 mm 0,0 UV-I 112 W/m -0,3 C 11,8 C 0,0 km/h (0 Bft) 0,00 %
19.04.2015 20:00 9,6 C 54 % 1019,2 hPa 0,0 l/m 0,0 km/h (0 Bft) N 0,00 h 0,000 mm 0,0 UV-I 0 W/m 0,6 C 9,6 C 0,0 km/h (0 Bft) 0,00 %
19.04.2015 21:00 7,4 C 65 % 1020,5 hPa 0,0 l/m 0,0 km/h (0 Bft) N 0,00 h 0,000 mm 0,0 UV-I 0 W/m 1,2 C 7,4 C 0,0 km/h (0 Bft) 0,00 %
19.04.2015 22:00 5,8 C 72 % 1021,0 hPa 0,0 l/m 0,0 km/h (0 Bft) N 0,00 h 0,000 mm 0,0 UV-I 0 W/m 1,2 C 5,8 C 0,0 km/h (0 Bft) 0,00 %
19.04.2015 23:00 5,3 C 73 % 1021,5 hPa 0,0 l/m 0,0 km/h (0 Bft) N 0,00 h 0,000 mm 0,0 UV-I 0 W/m 0,8 C 5,3 C 0,0 km/h (0 Bft) 0,00 %
Min-Datum _ 19.04.15 15.04.15 17.04.15 - 13.04.15 - - - - - 19.04.15 19.04.15 13.04.15 13.04.15
_ Min-Zeit 06:15 14:30 16:45 - 00:00 - - - - - 11:45 06:15 00:00 00:00
Minimum _ -0,5 C 23 % 1008,1 hPa - 0,0 km/h (0 Bft) - - - - - -2,9 C -0,5 C 0,0 km/h (0 Bft) 0,00 %
Max-Datum _ 16.04.15 17.04.15 14.04.15 17.04.15 14.04.15 - 13.04.15 13.04.15 18.04.15 13.04.15 17.04.15 16.04.15 14.04.15 13.04.15
_ Max-Zeit 13:45 18:45 07:45 13:15 17:30 - 06:30 00:00 13:45 14:15 16:00 13:45 17:30 00:00
Maximum _ 24,5 C 99 % 1030,4 hPa 6,9 l/m 20,9 km/h
W-SW (4 Bft)
- 0,25 h 0,000 mm 6,0 UV-I 858 W/m 11,8 C 24,5 C 28,1 km/h
W-SW (4 Bft)
0,00 %
Durchschnitt _ 11,8 C 60 % 1019,5 hPa #29,7 l/m 1,9 km/h (1 Bft) W-SW #50:15 h #0,000 mm 2,3 UV-I 315 W/m 3,3 C 11,6 C 3,1 km/h (1 Bft) 0,00 %